»·PEaware :: N719FT KFAT-KRNO

N719FT :: KFAT-KRNO

FLIGHT INFORMATION

Flight Status: Arrived
Operator: Privately registered:
United States
More flights under this callsign
Pilot: Gregory K. (31901)
Aircraft: SOCATA TBM-900
(TBM9)
More flights by this aircraft type
Origin: KFAT Fresno Yosemite Intl
United States
Destination: KRNO Reno/Tahoe Intl
United States
More flights between these airports :: More routes between these airports
Route: YOSE3 CZQ SLEAT DARBI MARRI V165 FMG
File this flight plan on PilotEdge
Remarks:
Altitude:
(Current/Filed)
16,000ft
Speed:
(Current/Filed)
250kts
Departed: 22-Dec-20 02:09 PM
Arrived: 22-Dec-20 02:55 PM
Distance/Time
Traveled:
163nm/0:46
Distance/Time
To Go:
Arrived

Flight Plot

Page will automatically refresh every two minutes.

Flight plan parsing failed; only flown route is shown


Map Options




Map Legend


Flown Route
Filed Route
Departure Airport
Arrival Airport
Navaid (VOR, NDB)
Fix

Horizontal Profiles

Position Reports

Time Latitude Longitude Heading Altitude Ground
Speed
22-Dec-20 13:49 36.769886 -119.702180 244 338ft 0kts
22-Dec-20 13:50 36.769886 -119.702180 244 338ft 0kts
22-Dec-20 13:51 36.769886 -119.702180 244 338ft 0kts
22-Dec-20 13:52 36.769886 -119.702180 244 338ft 0kts
22-Dec-20 13:53 36.769886 -119.702180 244 338ft 0kts
22-Dec-20 13:54 36.769886 -119.702180 244 338ft 0kts
22-Dec-20 13:55 36.769886 -119.702180 244 338ft 0kts
22-Dec-20 13:56 36.769886 -119.702180 244 338ft 0kts
22-Dec-20 13:58 36.769886 -119.702180 244 338ft 0kts
22-Dec-20 13:59 36.769886 -119.702180 244 338ft 0kts
22-Dec-20 14:00 36.769886 -119.702180 244 338ft 0kts
22-Dec-20 14:01 36.769886 -119.702180 244 338ft 0kts
22-Dec-20 14:02 36.769886 -119.702180 244 338ft 0kts
22-Dec-20 14:03 36.769886 -119.702180 244 338ft 0kts
22-Dec-20 14:04 36.769886 -119.702180 244 338ft 0kts
22-Dec-20 14:05 36.769886 -119.702180 244 338ft 0kts
22-Dec-20 14:06 36.769886 -119.702180 244 338ft 0kts
22-Dec-20 14:07 36.769626 -119.703007 223 339ft 5kts
22-Dec-20 14:08 36.769561 -119.703084 222 339ft 0kts
22-Dec-20 14:09 36.769822 -119.705187 305 339ft 44kts
22-Dec-20 14:10 36.791119 -119.744389 305 1449ft 196kts
22-Dec-20 14:11 36.824815 -119.807734 305 2971ft 232kts
22-Dec-20 14:12 36.861937 -119.875703 305 4474ft 241kts
22-Dec-20 14:12 36.894322 -119.933978 305 5728ft 246kts
22-Dec-20 14:13 36.933611 -120.004138 305 7226ft 246kts
22-Dec-20 14:15 36.997094 -120.047725 3 8975ft 244kts
22-Dec-20 14:16 37.065160 -120.041456 3 10478ft 245kts
22-Dec-20 14:16 37.122055 -120.037209 3 11725ft 246kts
22-Dec-20 14:17 37.189406 -120.022783 10 13220ft 246kts
22-Dec-20 14:18 37.256566 -120.007157 9 14718ft 244kts
22-Dec-20 14:19 37.323366 -119.996344 6 15879ft 242kts
22-Dec-20 14:20 37.393590 -119.985806 5 16005ft 261kts
22-Dec-20 14:21 37.466876 -119.974875 6 16033ft 267kts
22-Dec-20 14:22 37.541154 -119.963717 6 16056ft 270kts
22-Dec-20 14:23 37.616271 -119.952421 6 16098ft 274kts
22-Dec-20 14:24 37.692296 -119.940953 6 16110ft 276kts
22-Dec-20 14:25 37.767834 -119.924864 33 16123ft 278kts
22-Dec-20 14:26 37.824120 -119.856647 43 16171ft 280kts
22-Dec-20 14:27 37.883243 -119.792304 38 16198ft 280kts
22-Dec-20 14:28 37.949898 -119.742659 13 16251ft 283kts
22-Dec-20 14:29 38.028125 -119.731655 0 16252ft 285kts
22-Dec-20 14:30 38.107345 -119.732157 0 16269ft 285kts
22-Dec-20 14:31 38.184395 -119.756501 348 16276ft 288kts
22-Dec-20 14:32 38.259716 -119.729065 19 16276ft 283kts
22-Dec-20 14:33 38.336736 -119.714828 348 16273ft 287kts
22-Dec-20 14:34 38.415977 -119.723701 7 16292ft 286kts
22-Dec-20 14:35 38.495642 -119.718227 5 16316ft 287kts
22-Dec-20 14:36 38.575275 -119.712747 4 16333ft 287kts
22-Dec-20 14:37 38.655358 -119.707356 4 16292ft 287kts
22-Dec-20 14:38 38.734869 -119.701797 5 16255ft 286kts
22-Dec-20 14:39 38.815580 -119.696990 4 15808ft 292kts
22-Dec-20 14:40 38.898300 -119.692283 3 14842ft 303kts
22-Dec-20 14:41 38.983077 -119.687456 3 13737ft 304kts
22-Dec-20 14:42 39.066222 -119.691782 343 13010ft 295kts
22-Dec-20 14:43 39.137915 -119.720622 345 12980ft 239kts
22-Dec-20 14:44 39.204517 -119.745122 344 12982ft 253kts
22-Dec-20 14:45 39.272567 -119.771048 344 12979ft 255kts
22-Dec-20 14:46 39.342363 -119.792960 1 12762ft 257kts
22-Dec-20 14:47 39.377068 -119.729665 112 11487ft 235kts
22-Dec-20 14:48 39.348457 -119.728074 300 10450ft 134kts
22-Dec-20 14:49 39.380303 -119.753110 330 7825ft 124kts
22-Dec-20 14:50 39.413105 -119.766974 355 6631ft 115kts
22-Dec-20 14:51 39.442159 -119.767014 359 5647ft 102kts
22-Dec-20 14:52 39.468513 -119.766746 1 5138ft 88kts
22-Dec-20 14:53 39.493051 -119.766840 1 4412ft 65kts
22-Dec-20 14:54 39.497342 -119.765581 78 4415ft 7kts

Navigation Log

Ident Type
Flight plan parsing failed, navigation log unavailable